sensor_id;sensor_type;location;lat;lon;timestamp;pressure;altitude;pressure_sealevel;temperature;humidity
31239;BME280;17871;31.584;74.450;2023-03-15T00:01:14;98184.88;;;23.21;72.85
31239;BME280;17871;31.584;74.450;2023-03-15T00:03:45;98190.09;;;23.21;72.71
31239;BME280;17871;31.584;74.450;2023-03-15T00:06:14;98185.69;;;23.22;72.86
31239;BME280;17871;31.584;74.450;2023-03-15T00:08:43;98187.47;;;23.21;72.91
31239;BME280;17871;31.584;74.450;2023-03-15T00:11:16;98193.50;;;23.22;73.22
31239;BME280;17871;31.584;74.450;2023-03-15T00:13:45;98188.44;;;23.19;73.56
31239;BME280;17871;31.584;74.450;2023-03-15T00:16:14;98187.47;;;23.03;74.15
31239;BME280;17871;31.584;74.450;2023-03-15T00:18:46;98193.31;;;23.08;74.15
31239;BME280;17871;31.584;74.450;2023-03-15T00:21:15;98197.13;;;23.01;74.07
31239;BME280;17871;31.584;74.450;2023-03-15T00:23:44;98192.38;;;23.09;73.94
31239;BME280;17871;31.584;74.450;2023-03-15T00:26:13;98204.38;;;23.13;73.80
31239;BME280;17871;31.584;74.450;2023-03-15T00:28:42;98193.19;;;23.11;73.93
31239;BME280;17871;31.584;74.450;2023-03-15T00:31:17;98194.66;;;23.16;74.21
31239;BME280;17871;31.584;74.450;2023-03-15T00:33:47;98200.16;;;23.10;74.12
31239;BME280;17871;31.584;74.450;2023-03-15T00:36:16;98207.88;;;23.12;73.94
31239;BME280;17871;31.584;74.450;2023-03-15T00:38:45;98204.38;;;23.13;73.92
31239;BME280;17871;31.584;74.450;2023-03-15T00:41:16;98207.63;;;23.18;73.92
31239;BME280;17871;31.584;74.450;2023-03-15T00:43:46;98205.16;;;23.15;73.74
31239;BME280;17871;31.584;74.450;2023-03-15T00:46:16;98212.28;;;23.11;74.04
31239;BME280;17871;31.584;74.450;2023-03-15T00:48:49;98210.28;;;23.16;74.31
31239;BME280;17871;31.584;74.450;2023-03-15T00:51:20;98209.59;;;23.13;74.25
31239;BME280;17871;31.584;74.450;2023-03-15T00:53:52;98216.50;;;23.14;73.98
31239;BME280;17871;31.584;74.450;2023-03-15T00:56:25;98219.72;;;23.19;73.69
31239;BME280;17871;31.584;74.450;2023-03-15T00:58:58;98213.81;;;23.15;74.35
31239;BME280;17871;31.584;74.450;2023-03-15T01:01:30;98226.94;;;23.14;74.31
31239;BME280;17871;31.584;74.450;2023-03-15T01:04:04;98220.72;;;23.16;74.00
31239;BME280;17871;31.584;74.450;2023-03-15T01:06:37;98227.63;;;23.17;74.14
31239;BME280;17871;31.584;74.450;2023-03-15T01:09:09;98223.13;;;23.21;73.82
31239;BME280;17871;31.584;74.450;2023-03-15T01:11:41;98231.56;;;23.26;73.90
31239;BME280;17871;31.584;74.450;2023-03-15T01:14:13;98226.56;;;23.03;74.49
31239;BME280;17871;31.584;74.450;2023-03-15T01:16:45;98230.09;;;23.02;74.83
31239;BME280;17871;31.584;74.450;2023-03-15T01:19:15;98234.66;;;22.97;74.90
31239;BME280;17871;31.584;74.450;2023-03-15T01:21:46;98236.41;;;22.96;74.71
31239;BME280;17871;31.584;74.450;2023-03-15T01:24:17;98238.44;;;22.90;74.85
31239;BME280;17871;31.584;74.450;2023-03-15T01:26:49;98244.50;;;22.90;74.79
31239;BME280;17871;31.584;74.450;2023-03-15T01:29:20;98245.50;;;22.88;74.58
31239;BME280;17871;31.584;74.450;2023-03-15T01:31:50;98255.13;;;22.86;75.08
31239;BME280;17871;31.584;74.450;2023-03-15T01:34:21;98253.38;;;22.86;75.47
31239;BME280;17871;31.584;74.450;2023-03-15T01:36:51;98265.31;;;22.92;75.48
31239;BME280;17871;31.584;74.450;2023-03-15T01:39:31;98265.09;;;22.96;75.24
31239;BME280;17871;31.584;74.450;2023-03-15T01:42:01;98274.66;;;22.96;75.38
31239;BME280;17871;31.584;74.450;2023-03-15T01:44:53;98269.69;;;23.10;75.26
31239;BME280;17871;31.584;74.450;2023-03-15T01:47:24;98273.34;;;23.06;75.31
31239;BME280;17871;31.584;74.450;2023-03-15T01:50:05;98273.72;;;23.17;75.69
31239;BME280;17871;31.584;74.450;2023-03-15T01:52:40;98276.19;;;23.20;75.52
31239;BME280;17871;31.584;74.450;2023-03-15T01:55:17;98276.03;;;23.23;75.32
31239;BME280;17871;31.584;74.450;2023-03-15T01:58:10;98279.50;;;23.23;75.53
31239;BME280;17871;31.584;74.450;2023-03-15T02:00:43;98295.13;;;23.23;75.45
31239;BME280;17871;31.584;74.450;2023-03-15T02:03:29;98292.81;;;23.36;75.67
31239;BME280;17871;31.584;74.450;2023-03-15T02:06:06;98294.31;;;23.42;76.02
31239;BME280;17871;31.584;74.450;2023-03-15T02:08:48;98301.09;;;23.46;75.78
31239;BME280;17871;31.584;74.450;2023-03-15T02:11:22;98304.25;;;23.52;75.57
31239;BME280;17871;31.584;74.450;2023-03-15T02:13:55;98304.97;;;23.56;75.10
31239;BME280;17871;31.584;74.450;2023-03-15T02:16:27;98301.09;;;23.64;74.87
31239;BME280;17871;31.584;74.450;2023-03-15T02:19:06;98306.88;;;23.71;74.73
31239;BME280;17871;31.584;74.450;2023-03-15T02:24:55;98328.56;;;23.90;74.48
31239;BME280;17871;31.584;74.450;2023-03-15T02:27:32;98324.47;;;23.85;74.41
31239;BME280;17871;31.584;74.450;2023-03-15T02:30:05;98335.19;;;23.97;73.79
31239;BME280;17871;31.584;74.450;2023-03-15T02:32:36;98334.91;;;24.03;73.63
31239;BME280;17871;31.584;74.450;2023-03-15T02:35:06;98348.66;;;24.07;73.47
31239;BME280;17871;31.584;74.450;2023-03-15T02:37:35;98348.09;;;24.19;73.17
31239;BME280;17871;31.584;74.450;2023-03-15T02:40:16;98349.50;;;24.26;73.60
31239;BME280;17871;31.584;74.450;2023-03-15T02:42:50;98353.91;;;24.24;73.31
31239;BME280;17871;31.584;74.450;2023-03-15T02:45:25;98349.09;;;24.34;73.04
31239;BME280;17871;31.584;74.450;2023-03-15T02:47:56;98352.88;;;24.45;72.95
31239;BME280;17871;31.584;74.450;2023-03-15T02:50:26;98357.50;;;24.57;72.64
31239;BME280;17871;31.584;74.450;2023-03-15T02:52:56;98370.56;;;24.74;71.30
31239;BME280;17871;31.584;74.450;2023-03-15T02:55:29;98363.56;;;24.75;71.26
31239;BME280;17871;31.584;74.450;2023-03-15T02:58:02;98367.34;;;24.52;72.38
31239;BME280;17871;31.584;74.450;2023-03-15T03:00:32;98374.47;;;24.49;72.18
31239;BME280;17871;31.584;74.450;2023-03-15T03:03:03;98380.72;;;24.46;72.73
31239;BME280;17871;31.584;74.450;2023-03-15T03:05:33;98379.94;;;24.61;72.26
31239;BME280;17871;31.584;74.450;2023-03-15T03:08:04;98382.66;;;24.60;72.27
31239;BME280;17871;31.584;74.450;2023-03-15T03:10:34;98384.03;;;24.84;71.74
31239;BME280;17871;31.584;74.450;2023-03-15T03:13:05;98396.28;;;24.84;71.54
31239;BME280;17871;31.584;74.450;2023-03-15T03:15:37;98392.59;;;24.88;72.04
31239;BME280;17871;31.584;74.450;2023-03-15T03:18:08;98408.34;;;25.03;71.63
31239;BME280;17871;31.584;74.450;2023-03-15T03:20:38;98419.84;;;25.16;70.81
31239;BME280;17871;31.584;74.450;2023-03-15T03:23:08;98406.56;;;25.21;70.79
31239;BME280;17871;31.584;74.450;2023-03-15T03:25:38;98419.78;;;25.35;70.64
31239;BME280;17871;31.584;74.450;2023-03-15T03:28:08;98415.91;;;25.42;70.19
31239;BME280;17871;31.584;74.450;2023-03-15T03:30:38;98414.81;;;25.46;70.40
31239;BME280;17871;31.584;74.450;2023-03-15T03:33:08;98411.75;;;25.55;69.91
31239;BME280;17871;31.584;74.450;2023-03-15T03:35:38;98413.09;;;25.62;69.42
31239;BME280;17871;31.584;74.450;2023-03-15T03:38:09;98415.34;;;25.86;69.13
31239;BME280;17871;31.584;74.450;2023-03-15T03:40:45;98412.81;;;25.84;69.48
31239;BME280;17871;31.584;74.450;2023-03-15T03:43:15;98413.56;;;25.86;68.68
31239;BME280;17871;31.584;74.450;2023-03-15T03:45:45;98416.03;;;26.05;68.25
31239;BME280;17871;31.584;74.450;2023-03-15T03:48:17;98430.63;;;26.09;68.09
31239;BME280;17871;31.584;74.450;2023-03-15T03:50:46;98431.09;;;26.17;67.95
31239;BME280;17871;31.584;74.450;2023-03-15T03:53:16;98426.03;;;26.29;67.62
31239;BME280;17871;31.584;74.450;2023-03-15T03:55:46;98425.44;;;26.40;66.93
31239;BME280;17871;31.584;74.450;2023-03-15T03:58:20;98426.59;;;26.50;66.07
31239;BME280;17871;31.584;74.450;2023-03-15T04:00:55;98421.41;;;26.64;66.59
31239;BME280;17871;31.584;74.450;2023-03-15T04:03:28;98421.63;;;26.75;66.50
31239;BME280;17871;31.584;74.450;2023-03-15T04:06:08;98422.09;;;26.98;66.32
31239;BME280;17871;31.584;74.450;2023-03-15T04:08:42;98429.59;;;27.04;65.98
31239;BME280;17871;31.584;74.450;2023-03-15T04:11:18;98431.59;;;27.14;65.88
31239;BME280;17871;31.584;74.450;2023-03-15T04:13:53;98428.97;;;27.14;64.92
31239;BME280;17871;31.584;74.450;2023-03-15T04:16:23;98433.22;;;27.31;64.64
31239;BME280;17871;31.584;74.450;2023-03-15T04:19:06;98436.06;;;27.42;64.58
31239;BME280;17871;31.584;74.450;2023-03-15T04:21:36;98432.91;;;27.51;64.14
31239;BME280;17871;31.584;74.450;2023-03-15T04:24:24;98431.38;;;27.33;64.04
31239;BME280;17871;31.584;74.450;2023-03-15T04:27:05;98440.22;;;27.60;63.05
31239;BME280;17871;31.584;74.450;2023-03-15T04:29:44;98435.44;;;27.67;62.86
31239;BME280;17871;31.584;74.450;2023-03-15T04:32:43;98437.22;;;27.80;62.40
31239;BME280;17871;31.584;74.450;2023-03-15T04:35:20;98432.03;;;27.93;63.09
31239;BME280;17871;31.584;74.450;2023-03-15T04:37:57;98435.69;;;28.05;61.89
31239;BME280;17871;31.584;74.450;2023-03-15T04:40:46;98432.78;;;28.09;61.83
31239;BME280;17871;31.584;74.450;2023-03-15T04:43:30;98438.13;;;28.22;61.27
31239;BME280;17871;31.584;74.450;2023-03-15T04:46:37;98435.06;;;28.42;61.32
31239;BME280;17871;31.584;74.450;2023-03-15T04:49:35;98437.13;;;28.51;60.95
31239;BME280;17871;31.584;74.450;2023-03-15T04:52:22;98438.75;;;28.66;60.28
31239;BME280;17871;31.584;74.450;2023-03-15T04:54:56;98447.53;;;28.79;60.44
31239;BME280;17871;31.584;74.450;2023-03-15T04:57:54;98444.75;;;28.68;60.37
31239;BME280;17871;31.584;74.450;2023-03-15T05:00:47;98447.66;;;28.78;60.46
31239;BME280;17871;31.584;74.450;2023-03-15T05:03:33;98443.03;;;28.81;60.12
31239;BME280;17871;31.584;74.450;2023-03-15T05:06:22;98444.97;;;29.05;59.91
31239;BME280;17871;31.584;74.450;2023-03-15T05:08:55;98440.75;;;29.15;60.48
31239;BME280;17871;31.584;74.450;2023-03-15T05:11:33;98437.91;;;29.05;59.48
31239;BME280;17871;31.584;74.450;2023-03-15T05:14:20;98434.25;;;29.08;59.62
31239;BME280;17871;31.584;74.450;2023-03-15T05:17:07;98446.19;;;29.26;58.20
31239;BME280;17871;31.584;74.450;2023-03-15T05:19:55;98446.31;;;29.37;58.24
31239;BME280;17871;31.584;74.450;2023-03-15T05:22:42;98446.31;;;29.62;56.80
31239;BME280;17871;31.584;74.450;2023-03-15T05:25:31;98448.41;;;29.82;56.69
31239;BME280;17871;31.584;74.450;2023-03-15T05:28:17;98438.34;;;30.00;56.93
31239;BME280;17871;31.584;74.450;2023-03-15T05:31:04;98436.34;;;30.16;56.12
31239;BME280;17871;31.584;74.450;2023-03-15T05:33:53;98441.00;;;30.36;55.44
31239;BME280;17871;31.584;74.450;2023-03-15T05:36:43;98439.19;;;30.50;54.34
31239;BME280;17871;31.584;74.450;2023-03-15T05:39:14;98431.84;;;30.66;53.84
31239;BME280;17871;31.584;74.450;2023-03-15T05:42:00;98436.69;;;30.72;54.19
31239;BME280;17871;31.584;74.450;2023-03-15T05:44:47;98435.13;;;30.80;53.45
31239;BME280;17871;31.584;74.450;2023-03-15T05:47:23;98428.53;;;30.99;53.41
31239;BME280;17871;31.584;74.450;2023-03-15T05:50:11;98439.81;;;31.01;51.87
31239;BME280;17871;31.584;74.450;2023-03-15T05:52:58;98432.88;;;31.11;51.18
31239;BME280;17871;31.584;74.450;2023-03-15T05:55:53;98430.28;;;31.22;50.25
31239;BME280;17871;31.584;74.450;2023-03-15T05:58:42;98430.38;;;31.20;50.32
31239;BME280;17871;31.584;74.450;2023-03-15T06:01:17;98436.53;;;31.43;49.44
31239;BME280;17871;31.584;74.450;2023-03-15T06:04:06;98441.72;;;31.45;50.42
31239;BME280;17871;31.584;74.450;2023-03-15T06:06:35;98432.19;;;31.42;49.61
31239;BME280;17871;31.584;74.450;2023-03-15T06:09:06;98427.94;;;31.63;49.17
31239;BME280;17871;31.584;74.450;2023-03-15T06:11:36;98437.78;;;31.72;48.98
31239;BME280;17871;31.584;74.450;2023-03-15T06:14:06;98438.28;;;31.66;48.70
31239;BME280;17871;31.584;74.450;2023-03-15T06:16:48;98429.88;;;31.83;49.81
31239;BME280;17871;31.584;74.450;2023-03-15T06:19:18;98430.72;;;31.84;49.35
31239;BME280;17871;31.584;74.450;2023-03-15T06:21:49;98428.19;;;31.82;49.66
31239;BME280;17871;31.584;74.450;2023-03-15T06:24:31;98427.19;;;31.95;48.32
31239;BME280;17871;31.584;74.450;2023-03-15T06:27:00;98425.53;;;31.94;48.44
31239;BME280;17871;31.584;74.450;2023-03-15T06:29:30;98424.09;;;32.01;48.50
31239;BME280;17871;31.584;74.450;2023-03-15T06:32:00;98425.44;;;32.17;47.74
31239;BME280;17871;31.584;74.450;2023-03-15T06:34:30;98424.44;;;31.96;47.83
31239;BME280;17871;31.584;74.450;2023-03-15T06:37:00;98423.84;;;32.15;47.67
31239;BME280;17871;31.584;74.450;2023-03-15T06:39:31;98422.38;;;32.22;47.24
31239;BME280;17871;31.584;74.450;2023-03-15T06:42:05;98416.53;;;32.07;47.10
31239;BME280;17871;31.584;74.450;2023-03-15T06:44:40;98410.34;;;32.29;47.66
31239;BME280;17871;31.584;74.450;2023-03-15T06:47:12;98401.38;;;32.20;47.43
31239;BME280;17871;31.584;74.450;2023-03-15T06:49:42;98408.31;;;32.32;46.51
31239;BME280;17871;31.584;74.450;2023-03-15T06:52:12;98401.84;;;32.14;46.33
31239;BME280;17871;31.584;74.450;2023-03-15T06:54:42;98402.06;;;32.33;45.92
31239;BME280;17871;31.584;74.450;2023-03-15T06:57:12;98399.50;;;32.43;46.21
31239;BME280;17871;31.584;74.450;2023-03-15T06:59:42;98390.91;;;32.51;47.67
31239;BME280;17871;31.584;74.450;2023-03-15T07:02:16;98387.44;;;32.50;47.13
31239;BME280;17871;31.584;74.450;2023-03-15T07:04:47;98382.00;;;32.52;46.34
31239;BME280;17871;31.584;74.450;2023-03-15T07:07:17;98374.25;;;32.71;46.21
31239;BME280;17871;31.584;74.450;2023-03-15T07:09:47;98369.47;;;32.65;47.37
31239;BME280;17871;31.584;74.450;2023-03-15T07:12:19;98367.38;;;32.79;45.89
31239;BME280;17871;31.584;74.450;2023-03-15T07:14:49;98375.91;;;32.83;46.40
31239;BME280;17871;31.584;74.450;2023-03-15T07:17:18;98366.28;;;32.82;46.99
31239;BME280;17871;31.584;74.450;2023-03-15T07:19:48;98363.88;;;33.00;46.67
31239;BME280;17871;31.584;74.450;2023-03-15T07:22:23;98359.03;;;33.05;46.38
31239;BME280;17871;31.584;74.450;2023-03-15T07:24:55;98362.78;;;33.02;46.07
31239;BME280;17871;31.584;74.450;2023-03-15T07:27:26;98358.16;;;33.15;45.95
31239;BME280;17871;31.584;74.450;2023-03-15T07:30:01;98355.56;;;33.25;45.82
31239;BME280;17871;31.584;74.450;2023-03-15T07:32:31;98344.22;;;33.23;46.74
31239;BME280;17871;31.584;74.450;2023-03-15T07:35:01;98342.13;;;33.17;46.33
31239;BME280;17871;31.584;74.450;2023-03-15T07:37:32;98339.50;;;33.26;45.50
31239;BME280;17871;31.584;74.450;2023-03-15T07:40:02;98337.16;;;33.03;44.85
31239;BME280;17871;31.584;74.450;2023-03-15T07:42:35;98332.50;;;33.16;44.42
31239;BME280;17871;31.584;74.450;2023-03-15T07:45:07;98323.84;;;33.14;45.29
31239;BME280;17871;31.584;74.450;2023-03-15T07:47:38;98321.16;;;33.34;44.61
31239;BME280;17871;31.584;74.450;2023-03-15T07:50:08;98314.22;;;33.53;45.21
31239;BME280;17871;31.584;74.450;2023-03-15T07:52:38;98319.03;;;33.59;45.43
31239;BME280;17871;31.584;74.450;2023-03-15T07:55:08;98309.22;;;33.59;44.03
31239;BME280;17871;31.584;74.450;2023-03-15T07:57:38;98314.38;;;33.21;44.03
31239;BME280;17871;31.584;74.450;2023-03-15T08:00:08;98309.63;;;33.45;43.21
31239;BME280;17871;31.584;74.450;2023-03-15T08:02:40;98300.84;;;33.54;42.76
31239;BME280;17871;31.584;74.450;2023-03-15T08:05:10;98298.63;;;33.59;42.74
31239;BME280;17871;31.584;74.450;2023-03-15T08:07:39;98287.53;;;33.65;45.01
31239;BME280;17871;31.584;74.450;2023-03-15T08:10:10;98285.19;;;33.42;45.22
31239;BME280;17871;31.584;74.450;2023-03-15T08:12:40;98282.44;;;33.53;44.20
31239;BME280;17871;31.584;74.450;2023-03-15T08:15:12;98277.63;;;33.37;44.80
31239;BME280;17871;31.584;74.450;2023-03-15T08:17:43;98271.00;;;33.43;45.03
31239;BME280;17871;31.584;74.450;2023-03-15T08:20:13;98263.88;;;33.53;45.30
31239;BME280;17871;31.584;74.450;2023-03-15T08:22:47;98260.47;;;33.31;44.30
31239;BME280;17871;31.584;74.450;2023-03-15T08:25:21;98262.59;;;33.47;44.09
31239;BME280;17871;31.584;74.450;2023-03-15T08:27:51;98256.22;;;33.59;43.58
31239;BME280;17871;31.584;74.450;2023-03-15T08:30:22;98251.75;;;33.50;43.60
31239;BME280;17871;31.584;74.450;2023-03-15T08:32:52;98254.31;;;33.61;43.99
31239;BME280;17871;31.584;74.450;2023-03-15T08:35:22;98248.84;;;33.63;44.25
31239;BME280;17871;31.584;74.450;2023-03-15T08:37:52;98243.16;;;33.77;44.60
31239;BME280;17871;31.584;74.450;2023-03-15T08:40:21;98240.78;;;33.64;44.24
31239;BME280;17871;31.584;74.450;2023-03-15T08:42:55;98238.41;;;33.61;45.77
31239;BME280;17871;31.584;74.450;2023-03-15T08:45:25;98240.78;;;33.64;45.01
31239;BME280;17871;31.584;74.450;2023-03-15T08:47:56;98232.56;;;33.77;44.33
31239;BME280;17871;31.584;74.450;2023-03-15T08:50:29;98232.84;;;33.64;43.45
31239;BME280;17871;31.584;74.450;2023-03-15T08:53:02;98219.63;;;33.44;43.06
31239;BME280;17871;31.584;74.450;2023-03-15T08:55:31;98220.09;;;33.58;43.36
31239;BME280;17871;31.584;74.450;2023-03-15T08:58:02;98218.53;;;33.46;42.67
31239;BME280;17871;31.584;74.450;2023-03-15T09:00:32;98214.06;;;33.47;44.03
31239;BME280;17871;31.584;74.450;2023-03-15T09:03:04;98212.84;;;33.60;43.30
31239;BME280;17871;31.584;74.450;2023-03-15T09:05:33;98203.91;;;33.42;42.92
31239;BME280;17871;31.584;74.450;2023-03-15T09:08:03;98204.59;;;33.44;42.09
31239;BME280;17871;31.584;74.450;2023-03-15T09:10:33;98199.94;;;33.36;42.10
31239;BME280;17871;31.584;74.450;2023-03-15T09:13:03;98195.34;;;33.29;42.97
31239;BME280;17871;31.584;74.450;2023-03-15T09:15:32;98190.09;;;33.48;41.95
31239;BME280;17871;31.584;74.450;2023-03-15T09:18:03;98186.31;;;33.51;42.82
31239;BME280;17871;31.584;74.450;2023-03-15T09:20:33;98176.56;;;33.51;42.95
31239;BME280;17871;31.584;74.450;2023-03-15T09:23:02;98177.81;;;33.47;43.36
31239;BME280;17871;31.584;74.450;2023-03-15T09:25:32;98174.50;;;33.64;43.37
31239;BME280;17871;31.584;74.450;2023-03-15T09:28:06;98171.94;;;33.44;42.71
31239;BME280;17871;31.584;74.450;2023-03-15T09:30:38;98164.56;;;33.57;43.27
31239;BME280;17871;31.584;74.450;2023-03-15T09:33:09;98160.97;;;33.67;43.70
31239;BME280;17871;31.584;74.450;2023-03-15T09:35:43;98154.84;;;33.67;42.40
31239;BME280;17871;31.584;74.450;2023-03-15T09:38:15;98148.00;;;33.64;42.03
31239;BME280;17871;31.584;74.450;2023-03-15T09:40:58;98147.16;;;33.73;41.61
31239;BME280;17871;31.584;74.450;2023-03-15T09:43:54;98153.56;;;33.80;41.40
31239;BME280;17871;31.584;74.450;2023-03-15T09:46:31;98153.16;;;33.85;41.00
31239;BME280;17871;31.584;74.450;2023-03-15T09:49:16;98143.94;;;33.89;40.64
31239;BME280;17871;31.584;74.450;2023-03-15T09:51:54;98143.53;;;33.65;41.43
31239;BME280;17871;31.584;74.450;2023-03-15T09:55:12;98138.09;;;33.76;41.44
31239;BME280;17871;31.584;74.450;2023-03-15T10:03:01;98130.13;;;33.66;39.56
31239;BME280;17871;31.584;74.450;2023-03-15T10:05:41;98126.66;;;33.75;39.56
31239;BME280;17871;31.584;74.450;2023-03-15T10:08:14;98125.13;;;33.63;40.51
31239;BME280;17871;31.584;74.450;2023-03-15T10:10:56;98124.25;;;33.72;39.11
31239;BME280;17871;31.584;74.450;2023-03-15T10:16:44;98119.38;;;33.58;39.52
31239;BME280;17871;31.584;74.450;2023-03-15T10:29:57;98096.91;;;33.43;42.06
31239;BME280;17871;31.584;74.450;2023-03-15T10:32:38;98102.19;;;33.24;42.67
31239;BME280;17871;31.584;74.450;2023-03-15T10:35:17;98100.25;;;33.35;42.59
31239;BME280;17871;31.584;74.450;2023-03-15T10:37:47;98095.47;;;33.20;42.95
31239;BME280;17871;31.584;74.450;2023-03-15T10:40:47;98088.25;;;33.22;43.89
31239;BME280;17871;31.584;74.450;2023-03-15T10:43:24;98086.84;;;33.18;43.67
31239;BME280;17871;31.584;74.450;2023-03-15T10:46:03;98080.66;;;32.98;43.52
31239;BME280;17871;31.584;74.450;2023-03-15T10:48:36;98087.94;;;33.06;42.92
31239;BME280;17871;31.584;74.450;2023-03-15T10:51:15;98087.97;;;33.15;43.04
31239;BME280;17871;31.584;74.450;2023-03-15T10:54:03;98075.91;;;33.02;44.75
31239;BME280;17871;31.584;74.450;2023-03-15T10:56:45;98080.38;;;33.01;45.44
31239;BME280;17871;31.584;74.450;2023-03-15T10:59:20;98070.06;;;33.08;44.01
31239;BME280;17871;31.584;74.450;2023-03-15T11:02:06;98066.47;;;33.09;44.47
31239;BME280;17871;31.584;74.450;2023-03-15T11:04:48;98068.66;;;32.94;44.94
31239;BME280;17871;31.584;74.450;2023-03-15T11:07:19;98067.50;;;32.77;44.62
31239;BME280;17871;31.584;74.450;2023-03-15T11:09:57;98061.94;;;32.80;44.46
31239;BME280;17871;31.584;74.450;2023-03-15T11:12:30;98056.88;;;32.68;44.66
31239;BME280;17871;31.584;74.450;2023-03-15T11:15:13;98060.66;;;32.65;44.41
31239;BME280;17871;31.584;74.450;2023-03-15T11:17:45;98064.44;;;32.72;44.66
31239;BME280;17871;31.584;74.450;2023-03-15T11:20:31;98064.97;;;32.66;44.06
31239;BME280;17871;31.584;74.450;2023-03-15T11:23:25;98063.28;;;32.65;44.25
31239;BME280;17871;31.584;74.450;2023-03-15T11:25:56;98062.41;;;32.55;44.41
31239;BME280;17871;31.584;74.450;2023-03-15T11:28:28;98059.16;;;32.42;44.90
31239;BME280;17871;31.584;74.450;2023-03-15T11:31:01;98060.09;;;32.41;44.62
31239;BME280;17871;31.584;74.450;2023-03-15T11:36:33;98058.44;;;32.40;45.51
31239;BME280;17871;31.584;74.450;2023-03-15T11:39:05;98047.28;;;32.36;45.04
31239;BME280;17871;31.584;74.450;2023-03-15T11:46:56;98062.94;;;32.19;44.88
31239;BME280;17871;31.584;74.450;2023-03-15T11:49:40;98049.09;;;32.06;44.95
31239;BME280;17871;31.584;74.450;2023-03-15T11:52:15;98062.13;;;31.98;45.02
31239;BME280;17871;31.584;74.450;2023-03-15T11:54:45;98049.66;;;31.88;45.16
31239;BME280;17871;31.584;74.450;2023-03-15T12:03:21;98050.06;;;31.84;45.18
31239;BME280;17871;31.584;74.450;2023-03-15T12:08:40;98059.28;;;31.69;45.73
31239;BME280;17871;31.584;74.450;2023-03-15T12:11:11;98062.75;;;31.69;46.09
31239;BME280;17871;31.584;74.450;2023-03-15T12:16:34;98065.34;;;31.49;46.41
31239;BME280;17871;31.584;74.450;2023-03-15T12:19:15;98065.25;;;31.50;47.07
31239;BME280;17871;31.584;74.450;2023-03-15T12:21:55;98064.06;;;31.54;46.89
31239;BME280;17871;31.584;74.450;2023-03-15T12:24:28;98070.56;;;31.39;47.44
31239;BME280;17871;31.584;74.450;2023-03-15T12:27:05;98068.97;;;31.16;48.38
31239;BME280;17871;31.584;74.450;2023-03-15T12:29:47;98067.31;;;31.04;49.12
31239;BME280;17871;31.584;74.450;2023-03-15T12:32:19;98060.53;;;30.79;50.25
31239;BME280;17871;31.584;74.450;2023-03-15T12:34:54;98068.22;;;30.71;50.90
31239;BME280;17871;31.584;74.450;2023-03-15T12:42:59;98084.88;;;30.38;52.70
31239;BME280;17871;31.584;74.450;2023-03-15T12:45:36;98083.91;;;30.39;52.33
31239;BME280;17871;31.584;74.450;2023-03-15T12:56:36;98097.09;;;30.28;52.85
31239;BME280;17871;31.584;74.450;2023-03-15T13:02:33;98098.53;;;30.10;51.19
31239;BME280;17871;31.584;74.450;2023-03-15T13:11:04;98103.22;;;29.82;51.26
31239;BME280;17871;31.584;74.450;2023-03-15T13:13:48;98106.09;;;29.79;51.09
31239;BME280;17871;31.584;74.450;2023-03-15T13:16:37;98111.59;;;29.76;51.81
31239;BME280;17871;31.584;74.450;2023-03-15T13:19:20;98107.81;;;29.57;52.64
31239;BME280;17871;31.584;74.450;2023-03-15T13:28:25;98117.19;;;29.37;53.84
31239;BME280;17871;31.584;74.450;2023-03-15T13:30:56;98120.47;;;29.28;54.63
31239;BME280;17871;31.584;74.450;2023-03-15T13:33:29;98119.41;;;29.30;54.60
31239;BME280;17871;31.584;74.450;2023-03-15T13:36:12;98113.31;;;29.30;55.89
31239;BME280;17871;31.584;74.450;2023-03-15T13:38:54;98125.50;;;29.31;55.87
31239;BME280;17871;31.584;74.450;2023-03-15T13:41:28;98126.16;;;29.22;56.76
31239;BME280;17871;31.584;74.450;2023-03-15T13:44:01;98124.69;;;29.18;57.28
31239;BME280;17871;31.584;74.450;2023-03-15T13:46:34;98124.63;;;29.07;58.05
31239;BME280;17871;31.584;74.450;2023-03-15T13:49:03;98123.38;;;29.00;58.79
31239;BME280;17871;31.584;74.450;2023-03-15T13:51:36;98131.72;;;28.94;58.85
31239;BME280;17871;31.584;74.450;2023-03-15T13:54:40;98129.38;;;29.02;58.76
31239;BME280;17871;31.584;74.450;2023-03-15T13:57:18;98141.00;;;28.87;59.61
31239;BME280;17871;31.584;74.450;2023-03-15T14:00:14;98133.59;;;28.92;59.23
31239;BME280;17871;31.584;74.450;2023-03-15T14:03:05;98141.09;;;28.85;59.34
31239;BME280;17871;31.584;74.450;2023-03-15T14:05:45;98148.16;;;28.84;59.56
31239;BME280;17871;31.584;74.450;2023-03-15T14:08:23;98146.47;;;28.83;59.50
31239;BME280;17871;31.584;74.450;2023-03-15T14:13:52;98155.97;;;28.73;60.73
31239;BME280;17871;31.584;74.450;2023-03-15T14:16:45;98152.91;;;28.79;60.78
31239;BME280;17871;31.584;74.450;2023-03-15T14:19:35;98163.00;;;28.73;61.12
31239;BME280;17871;31.584;74.450;2023-03-15T14:22:13;98167.78;;;28.68;61.56
31239;BME280;17871;31.584;74.450;2023-03-15T14:24:46;98171.53;;;28.64;61.35
31239;BME280;17871;31.584;74.450;2023-03-15T14:27:20;98174.88;;;28.53;62.05
31239;BME280;17871;31.584;74.450;2023-03-15T14:29:54;98177.63;;;28.52;62.96
31239;BME280;17871;31.584;74.450;2023-03-15T14:32:34;98176.78;;;28.51;63.57
31239;BME280;17871;31.584;74.450;2023-03-15T14:35:24;98181.84;;;28.54;62.96
31239;BME280;17871;31.584;74.450;2023-03-15T14:38:05;98186.47;;;28.51;63.09
31239;BME280;17871;31.584;74.450;2023-03-15T14:40:37;98196.78;;;28.41;63.96
31239;BME280;17871;31.584;74.450;2023-03-15T14:43:08;98204.53;;;28.30;64.52
31239;BME280;17871;31.584;74.450;2023-03-15T14:45:41;98205.59;;;28.27;64.14
31239;BME280;17871;31.584;74.450;2023-03-15T14:48:18;98215.59;;;28.35;63.95